N87LA PADQ-PAVD
Flight info
| Callsign | N87LA |
|---|---|
| Flight time | 1h 8m |
| Altitude | 33000 |
| Route | ODK Q14 JOH |
| Aircraft | STAR/L-SDFGRWY/S |
Departure
| Time | 2026-04-20 22:51 |
|---|---|
| Airport | Kodiak Airport (PADQ) |
Arrival
| Time | 2026-04-20 23:59 |
|---|---|
| Airport | Valdez Pioneer Field (PAVD) |
| Time | Latitude | Longitude | Altitude | Speed | Heading |
|---|---|---|---|---|---|
| 2026-04-20 22:23 | 57.75381 | -152.51511 | 67 ft | 0 kts | 86° |
| 2026-04-20 22:43 | 57.75374 | -152.51459 | 66 ft | 4 kts | 124° |
| 2026-04-20 22:43 | 57.75357 | -152.51411 | 61 ft | 11 kts | 117° |
| 2026-04-20 22:44 | 57.75310 | -152.51283 | 63 ft | 12 kts | 143° |
| 2026-04-20 22:44 | 57.75236 | -152.51175 | 66 ft | 15 kts | 141° |
| 2026-04-20 22:44 | 57.75148 | -152.51087 | 67 ft | 14 kts | 159° |
| 2026-04-20 22:44 | 57.75106 | -152.50961 | 67 ft | 14 kts | 94° |
| 2026-04-20 22:45 | 57.75102 | -152.50774 | 68 ft | 14 kts | 92° |
| 2026-04-20 22:45 | 57.75097 | -152.50551 | 66 ft | 20 kts | 92° |
| 2026-04-20 22:45 | 57.75092 | -152.50289 | 68 ft | 19 kts | 91° |
| 2026-04-20 22:45 | 57.75088 | -152.50051 | 67 ft | 19 kts | 92° |
| 2026-04-20 22:46 | 57.75083 | -152.49811 | 68 ft | 18 kts | 90° |
| 2026-04-20 22:46 | 57.75070 | -152.49595 | 66 ft | 15 kts | 122° |
| 2026-04-20 22:46 | 57.75004 | -152.49430 | 64 ft | 16 kts | 127° |
| 2026-04-20 22:46 | 57.74929 | -152.49247 | 68 ft | 19 kts | 126° |
| 2026-04-20 22:47 | 57.74856 | -152.49057 | 64 ft | 17 kts | 127° |
| 2026-04-20 22:47 | 57.74794 | -152.48905 | 63 ft | 9 kts | 126° |
| 2026-04-20 22:47 | 57.74762 | -152.48768 | 65 ft | 15 kts | 83° |
| 2026-04-20 22:47 | 57.74825 | -152.48605 | 61 ft | 16 kts | 79° |
| 2026-04-20 22:48 | 57.74771 | -152.48444 | 66 ft | 16 kts | 127° |
| 2026-04-20 22:48 | 57.74711 | -152.48294 | 66 ft | 10 kts | 127° |
| 2026-04-20 22:48 | 57.74675 | -152.48171 | 68 ft | 11 kts | 102° |
| 2026-04-20 22:48 | 57.74646 | -152.48048 | 68 ft | 9 kts | 153° |
| 2026-04-20 22:49 | 57.74618 | -152.48061 | 64 ft | 3 kts | 261° |
| 2026-04-20 22:49 | 57.74623 | -152.48089 | 62 ft | 2 kts | 308° |
| 2026-04-20 22:49 | 57.74624 | -152.48091 | 62 ft | 0 kts | 308° |
| 2026-04-20 22:50 | 57.74653 | -152.48165 | 62 ft | 26 kts | 307° |
| 2026-04-20 22:50 | 57.74858 | -152.48668 | 64 ft | 69 kts | 307° |
| 2026-04-20 22:50 | 57.75209 | -152.49530 | 200 ft | 89 kts | 302° |
| 2026-04-20 22:50 | 57.75682 | -152.50444 | 605 ft | 111 kts | 313° |
| 2026-04-20 22:51 | 57.76579 | -152.50429 | 1142 ft | 150 kts | 17° |
| 2026-04-20 22:51 | 57.77255 | -152.48858 | 1825 ft | 169 kts | 67° |
| 2026-04-20 22:51 | 57.77404 | -152.46612 | 2488 ft | 180 kts | 85° |
| 2026-04-20 22:51 | 57.77486 | -152.44185 | 3129 ft | 192 kts | 85° |
| 2026-04-20 22:52 | 57.77613 | -152.41648 | 3828 ft | 199 kts | 81° |
| 2026-04-20 22:52 | 57.77790 | -152.39016 | 4485 ft | 209 kts | 80° |
| 2026-04-20 22:52 | 57.77922 | -152.36313 | 5274 ft | 207 kts | 82° |
| 2026-04-20 22:52 | 57.78255 | -152.33733 | 6047 ft | 200 kts | 50° |
| 2026-04-20 22:53 | 57.79091 | -152.31751 | 6796 ft | 191 kts | 34° |
| 2026-04-20 22:53 | 57.80061 | -152.30129 | 7546 ft | 185 kts | 22° |
| 2026-04-20 22:53 | 57.81100 | -152.28717 | 8338 ft | 184 kts | 19° |
| 2026-04-20 22:53 | 57.82127 | -152.27295 | 9122 ft | 188 kts | 23° |
| 2026-04-20 22:54 | 57.83146 | -152.25733 | 9951 ft | 190 kts | 24° |
| 2026-04-20 22:54 | 57.84179 | -152.24188 | 10690 ft | 190 kts | 22° |
| 2026-04-20 22:54 | 57.85229 | -152.22668 | 11430 ft | 192 kts | 21° |
| 2026-04-20 22:54 | 57.86290 | -152.21118 | 12173 ft | 194 kts | 21° |
| 2026-04-20 22:55 | 57.87357 | -152.19532 | 12918 ft | 196 kts | 21° |
| 2026-04-20 22:55 | 57.88421 | -152.17960 | 13644 ft | 198 kts | 20° |
| 2026-04-20 22:55 | 57.89524 | -152.16342 | 14323 ft | 199 kts | 19° |
| 2026-04-20 22:55 | 57.90621 | -152.14729 | 14959 ft | 201 kts | 20° |
| 2026-04-20 22:56 | 57.91725 | -152.13093 | 15603 ft | 203 kts | 19° |
| 2026-04-20 22:56 | 57.92821 | -152.11470 | 16257 ft | 204 kts | 19° |
| 2026-04-20 22:56 | 57.93944 | -152.09816 | 16904 ft | 206 kts | 19° |
| 2026-04-20 22:56 | 57.95071 | -152.08145 | 17629 ft | 208 kts | 18° |
| 2026-04-20 22:57 | 57.96214 | -152.06448 | 18258 ft | 210 kts | 17° |
| 2026-04-20 22:57 | 57.97375 | -152.04739 | 18806 ft | 213 kts | 17° |
| 2026-04-20 22:57 | 57.98545 | -152.03001 | 19362 ft | 215 kts | 17° |
| 2026-04-20 22:57 | 57.99723 | -152.01246 | 19919 ft | 217 kts | 17° |
| 2026-04-20 22:58 | 58.00914 | -151.99478 | 20489 ft | 219 kts | 17° |
| 2026-04-20 22:58 | 58.02116 | -151.97691 | 21057 ft | 220 kts | 17° |
| 2026-04-20 22:58 | 58.03327 | -151.95895 | 21593 ft | 224 kts | 17° |
| 2026-04-20 22:58 | 58.04558 | -151.94063 | 22176 ft | 227 kts | 17° |
| 2026-04-20 22:59 | 58.05782 | -151.92220 | 22777 ft | 229 kts | 17° |
| 2026-04-20 22:59 | 58.07050 | -151.90332 | 23390 ft | 230 kts | 16° |
| 2026-04-20 22:59 | 58.08299 | -151.88476 | 23913 ft | 232 kts | 17° |
| 2026-04-20 22:59 | 58.09572 | -151.86573 | 24406 ft | 234 kts | 17° |
| 2026-04-20 23:00 | 58.10854 | -151.84646 | 24912 ft | 236 kts | 18° |
| 2026-04-20 23:00 | 58.12144 | -151.82715 | 25406 ft | 237 kts | 18° |
| 2026-04-20 23:00 | 58.13446 | -151.80769 | 25897 ft | 239 kts | 18° |
| 2026-04-20 23:00 | 58.14753 | -151.78802 | 26388 ft | 241 kts | 19° |
| 2026-04-20 23:01 | 58.16074 | -151.76816 | 26876 ft | 243 kts | 19° |
| 2026-04-20 23:01 | 58.17400 | -151.74825 | 27358 ft | 244 kts | 19° |
| 2026-04-20 23:01 | 58.18741 | -151.72813 | 27863 ft | 247 kts | 21° |
| 2026-04-20 23:01 | 58.20088 | -151.70774 | 28320 ft | 249 kts | 21° |
| 2026-04-20 23:02 | 58.21428 | -151.68746 | 28778 ft | 250 kts | 21° |
| 2026-04-20 23:02 | 58.22793 | -151.66692 | 29236 ft | 251 kts | 22° |
| 2026-04-20 23:02 | 58.24168 | -151.64616 | 29689 ft | 253 kts | 22° |
| 2026-04-20 23:02 | 58.25545 | -151.62527 | 30117 ft | 254 kts | 22° |
| 2026-04-20 23:03 | 58.26933 | -151.60430 | 30482 ft | 255 kts | 23° |
| 2026-04-20 23:03 | 58.28316 | -151.58333 | 30850 ft | 254 kts | 24° |
| 2026-04-20 23:03 | 58.29685 | -151.56252 | 31204 ft | 254 kts | 25° |
| 2026-04-20 23:03 | 58.31034 | -151.54203 | 31544 ft | 254 kts | 25° |
| 2026-04-20 23:04 | 58.32415 | -151.52104 | 31874 ft | 254 kts | 26° |
| 2026-04-20 23:04 | 58.33799 | -151.49997 | 32195 ft | 255 kts | 27° |
| 2026-04-20 23:04 | 58.35181 | -151.47890 | 32501 ft | 255 kts | 27° |
| 2026-04-20 23:04 | 58.36546 | -151.45809 | 32754 ft | 257 kts | 28° |
| 2026-04-20 23:05 | 58.37962 | -151.43652 | 32882 ft | 265 kts | 28° |
| 2026-04-20 23:05 | 58.39424 | -151.41412 | 32937 ft | 275 kts | 29° |
| 2026-04-20 23:05 | 58.40939 | -151.39092 | 32999 ft | 285 kts | 30° |
| 2026-04-20 23:05 | 58.42512 | -151.36686 | 32985 ft | 295 kts | 31° |
| 2026-04-20 23:06 | 58.45788 | -151.31650 | 32978 ft | 309 kts | 31° |
| 2026-04-20 23:06 | 58.49194 | -151.26407 | 32976 ft | 319 kts | 31° |
| 2026-04-20 23:07 | 58.52683 | -151.21027 | 32976 ft | 325 kts | 31° |
| 2026-04-20 23:07 | 58.56206 | -151.15578 | 32970 ft | 330 kts | 31° |
| 2026-04-20 23:08 | 58.59783 | -151.10030 | 32972 ft | 332 kts | 31° |
| 2026-04-20 23:08 | 58.63388 | -151.04422 | 32973 ft | 334 kts | 32° |
| 2026-04-20 23:09 | 58.67005 | -150.98778 | 32972 ft | 336 kts | 32° |
| 2026-04-20 23:09 | 58.70643 | -150.93093 | 32965 ft | 337 kts | 32° |
| 2026-04-20 23:10 | 58.74275 | -150.87395 | 32962 ft | 337 kts | 32° |
| 2026-04-20 23:10 | 58.77886 | -150.81716 | 32963 ft | 337 kts | 32° |
| 2026-04-20 23:11 | 58.81521 | -150.75984 | 32960 ft | 338 kts | 32° |
| 2026-04-20 23:11 | 58.85154 | -150.70238 | 32955 ft | 338 kts | 32° |
| 2026-04-20 23:12 | 58.88784 | -150.64483 | 32956 ft | 338 kts | 32° |
| 2026-04-20 23:12 | 58.92411 | -150.58713 | 32950 ft | 337 kts | 32° |
| 2026-04-20 23:13 | 58.96034 | -150.52936 | 32949 ft | 337 kts | 32° |
| 2026-04-20 23:13 | 58.99633 | -150.47180 | 32949 ft | 337 kts | 32° |
| 2026-04-20 23:14 | 59.03247 | -150.41384 | 32939 ft | 337 kts | 33° |
| 2026-04-20 23:14 | 59.06871 | -150.35554 | 32938 ft | 339 kts | 33° |
| 2026-04-20 23:15 | 59.10513 | -150.29684 | 32951 ft | 340 kts | 33° |
| 2026-04-20 23:15 | 59.14154 | -150.23788 | 32934 ft | 341 kts | 33° |
| 2026-04-20 23:16 | 59.17800 | -150.17876 | 32932 ft | 341 kts | 33° |
| 2026-04-20 23:16 | 59.21414 | -150.11998 | 32922 ft | 341 kts | 33° |
| 2026-04-20 23:17 | 59.25048 | -150.06068 | 32921 ft | 340 kts | 33° |
| 2026-04-20 23:17 | 59.28680 | -150.00126 | 32908 ft | 340 kts | 33° |
| 2026-04-20 23:18 | 59.32306 | -149.94176 | 32911 ft | 340 kts | 33° |
| 2026-04-20 23:18 | 59.35935 | -149.88202 | 32917 ft | 341 kts | 34° |
| 2026-04-20 23:19 | 59.39560 | -149.82222 | 32902 ft | 340 kts | 34° |
| 2026-04-20 23:19 | 59.43178 | -149.76233 | 32900 ft | 340 kts | 34° |
| 2026-04-20 23:20 | 59.46770 | -149.70270 | 32890 ft | 340 kts | 34° |
| 2026-04-20 23:20 | 59.50380 | -149.64260 | 32889 ft | 340 kts | 34° |
| 2026-04-20 23:21 | 59.53984 | -149.58243 | 32890 ft | 340 kts | 34° |
| 2026-04-20 23:21 | 59.57589 | -149.52210 | 32895 ft | 340 kts | 34° |
| 2026-04-20 23:22 | 59.61186 | -149.46166 | 32887 ft | 339 kts | 34° |
| 2026-04-20 23:22 | 59.64775 | -149.40121 | 32883 ft | 339 kts | 34° |
| 2026-04-20 23:23 | 59.68330 | -149.34115 | 32878 ft | 338 kts | 34° |
| 2026-04-20 23:23 | 59.71904 | -149.28061 | 32877 ft | 338 kts | 34° |
| 2026-04-20 23:24 | 59.75492 | -149.21969 | 32610 ft | 347 kts | 34° |
| 2026-04-20 23:24 | 59.77360 | -149.18787 | 32092 ft | 361 kts | 35° |
| 2026-04-20 23:24 | 59.79291 | -149.15489 | 31608 ft | 371 kts | 35° |
| 2026-04-20 23:25 | 59.81270 | -149.12113 | 31110 ft | 379 kts | 35° |
| 2026-04-20 23:25 | 59.83262 | -149.08698 | 30627 ft | 386 kts | 34° |
| 2026-04-20 23:25 | 59.85308 | -149.05197 | 30141 ft | 391 kts | 34° |
| 2026-04-20 23:25 | 59.87326 | -149.01514 | 29604 ft | 399 kts | 43° |
| 2026-04-20 23:26 | 59.89026 | -148.97101 | 29022 ft | 404 kts | 50° |
| 2026-04-20 23:26 | 59.90458 | -148.92273 | 28456 ft | 406 kts | 60° |
| 2026-04-20 23:26 | 59.91660 | -148.87193 | 27912 ft | 404 kts | 61° |
| 2026-04-20 23:26 | 59.92986 | -148.82286 | 27395 ft | 401 kts | 58° |
| 2026-04-20 23:27 | 59.94246 | -148.77337 | 26856 ft | 400 kts | 60° |
| 2026-04-20 23:27 | 59.95540 | -148.72420 | 26345 ft | 400 kts | 58° |
| 2026-04-20 23:27 | 59.96389 | -148.69161 | 26025 ft | 401 kts | 60° |
| 2026-04-20 23:27 | 59.98089 | -148.62538 | 25420 ft | 401 kts | 59° |
| 2026-04-20 23:28 | 59.98943 | -148.59273 | 25105 ft | 399 kts | 60° |
| 2026-04-20 23:28 | 60.00608 | -148.52755 | 24476 ft | 396 kts | 60° |
| 2026-04-20 23:28 | 60.01873 | -148.47870 | 24017 ft | 395 kts | 60° |
| 2026-04-20 23:28 | 60.03119 | -148.42978 | 23565 ft | 394 kts | 60° |
| 2026-04-20 23:29 | 60.04365 | -148.38122 | 23040 ft | 390 kts | 60° |
| 2026-04-20 23:29 | 60.05196 | -148.34869 | 22674 ft | 388 kts | 61° |
| 2026-04-20 23:29 | 60.06398 | -148.30141 | 22205 ft | 384 kts | 61° |
| 2026-04-20 23:29 | 60.07603 | -148.25411 | 21726 ft | 379 kts | 61° |
| 2026-04-20 23:30 | 60.08794 | -148.20714 | 21258 ft | 376 kts | 61° |
| 2026-04-20 23:30 | 60.09971 | -148.16069 | 20805 ft | 373 kts | 61° |
| 2026-04-20 23:30 | 60.11137 | -148.11455 | 20353 ft | 369 kts | 61° |
| 2026-04-20 23:30 | 60.12290 | -148.06877 | 19910 ft | 366 kts | 61° |
| 2026-04-20 23:31 | 60.13433 | -148.02342 | 19473 ft | 363 kts | 62° |
| 2026-04-20 23:31 | 60.14566 | -147.97827 | 19066 ft | 361 kts | 62° |
| 2026-04-20 23:31 | 60.15688 | -147.93356 | 18639 ft | 356 kts | 62° |
| 2026-04-20 23:31 | 60.16792 | -147.88928 | 18223 ft | 353 kts | 62° |
| 2026-04-20 23:32 | 60.17886 | -147.84555 | 17812 ft | 349 kts | 62° |
| 2026-04-20 23:32 | 60.18955 | -147.80264 | 17404 ft | 347 kts | 62° |
| 2026-04-20 23:32 | 60.20029 | -147.75942 | 16971 ft | 344 kts | 62° |
| 2026-04-20 23:32 | 60.21090 | -147.71666 | 16559 ft | 341 kts | 62° |
| 2026-04-20 23:33 | 60.22147 | -147.67402 | 16153 ft | 339 kts | 62° |
| 2026-04-20 23:33 | 60.23192 | -147.63171 | 15751 ft | 337 kts | 62° |
| 2026-04-20 23:33 | 60.24230 | -147.58967 | 15355 ft | 334 kts | 62° |
| 2026-04-20 23:33 | 60.25259 | -147.54786 | 14967 ft | 333 kts | 62° |
| 2026-04-20 23:34 | 60.26284 | -147.50616 | 14565 ft | 333 kts | 62° |
| 2026-04-20 23:34 | 60.27313 | -147.46425 | 14184 ft | 333 kts | 62° |
| 2026-04-20 23:34 | 60.28335 | -147.42247 | 13808 ft | 332 kts | 63° |
| 2026-04-20 23:34 | 60.29353 | -147.38085 | 13398 ft | 329 kts | 63° |
| 2026-04-20 23:35 | 60.30363 | -147.33949 | 12977 ft | 328 kts | 63° |
| 2026-04-20 23:35 | 60.32343 | -147.25799 | 12176 ft | 322 kts | 64° |
| 2026-04-20 23:35 | 60.33323 | -147.21755 | 11772 ft | 319 kts | 64° |
| 2026-04-20 23:36 | 60.34296 | -147.17748 | 11376 ft | 318 kts | 64° |
| 2026-04-20 23:36 | 60.35260 | -147.13753 | 10981 ft | 313 kts | 64° |
| 2026-04-20 23:36 | 60.36191 | -147.09893 | 10589 ft | 299 kts | 64° |
| 2026-04-20 23:36 | 60.37085 | -147.06184 | 10216 ft | 289 kts | 65° |
| 2026-04-20 23:37 | 60.37949 | -147.02590 | 9838 ft | 281 kts | 65° |
| 2026-04-20 23:37 | 60.38781 | -146.99124 | 9427 ft | 275 kts | 65° |
| 2026-04-20 23:37 | 60.39611 | -146.95658 | 9025 ft | 273 kts | 65° |
| 2026-04-20 23:37 | 60.40430 | -146.92237 | 8804 ft | 266 kts | 65° |
| 2026-04-20 23:38 | 60.41217 | -146.88944 | 8706 ft | 255 kts | 65° |
| 2026-04-20 23:38 | 60.41969 | -146.85788 | 8661 ft | 243 kts | 65° |
| 2026-04-20 23:38 | 60.42697 | -146.82734 | 8499 ft | 239 kts | 65° |
| 2026-04-20 23:38 | 60.43413 | -146.79719 | 8354 ft | 235 kts | 65° |
| 2026-04-20 23:39 | 60.44112 | -146.76779 | 8297 ft | 228 kts | 65° |
| 2026-04-20 23:39 | 60.44796 | -146.73898 | 8264 ft | 227 kts | 65° |
| 2026-04-20 23:39 | 60.45478 | -146.71017 | 8253 ft | 228 kts | 65° |
| 2026-04-20 23:39 | 60.46162 | -146.68123 | 8244 ft | 228 kts | 65° |
| 2026-04-20 23:40 | 60.46846 | -146.65238 | 8242 ft | 227 kts | 66° |
| 2026-04-20 23:40 | 60.47526 | -146.62367 | 8241 ft | 225 kts | 67° |
| 2026-04-20 23:40 | 60.48436 | -146.59819 | 8240 ft | 226 kts | 39° |
| 2026-04-20 23:40 | 60.49881 | -146.58537 | 8010 ft | 234 kts | 7° |
| 2026-04-20 23:41 | 60.51498 | -146.58738 | 7877 ft | 232 kts | 349° |
| 2026-04-20 23:41 | 60.53067 | -146.59364 | 7808 ft | 227 kts | 346° |
| 2026-04-20 23:41 | 60.54585 | -146.60063 | 7777 ft | 221 kts | 345° |
| 2026-04-20 23:41 | 60.56039 | -146.60760 | 7765 ft | 214 kts | 345° |
| 2026-04-20 23:42 | 60.57466 | -146.61465 | 7756 ft | 209 kts | 344° |
| 2026-04-20 23:42 | 60.58859 | -146.62183 | 7753 ft | 205 kts | 343° |
| 2026-04-20 23:42 | 60.60230 | -146.62898 | 7754 ft | 202 kts | 343° |
| 2026-04-20 23:42 | 60.61583 | -146.63611 | 7751 ft | 200 kts | 343° |
| 2026-04-20 23:43 | 60.62922 | -146.64324 | 7751 ft | 198 kts | 343° |
| 2026-04-20 23:43 | 60.64259 | -146.65054 | 7754 ft | 203 kts | 342° |
| 2026-04-20 23:43 | 60.65666 | -146.65846 | 7748 ft | 216 kts | 342° |
| 2026-04-20 23:43 | 60.67150 | -146.66705 | 7752 ft | 227 kts | 342° |
| 2026-04-20 23:44 | 60.68692 | -146.67631 | 7761 ft | 235 kts | 342° |
| 2026-04-20 23:44 | 60.70281 | -146.68605 | 7764 ft | 242 kts | 341° |
| 2026-04-20 23:44 | 60.71886 | -146.69596 | 7767 ft | 246 kts | 341° |
| 2026-04-20 23:44 | 60.73524 | -146.70612 | 7762 ft | 245 kts | 342° |
| 2026-04-20 23:45 | 60.75150 | -146.71620 | 7762 ft | 244 kts | 341° |
| 2026-04-20 23:45 | 60.76768 | -146.72622 | 7760 ft | 242 kts | 341° |
| 2026-04-20 23:45 | 60.78375 | -146.73616 | 7762 ft | 241 kts | 341° |
| 2026-04-20 23:45 | 60.79969 | -146.74616 | 7764 ft | 237 kts | 341° |
| 2026-04-20 23:46 | 60.81524 | -146.75611 | 7762 ft | 232 kts | 341° |
| 2026-04-20 23:46 | 60.83052 | -146.76589 | 7762 ft | 228 kts | 341° |
| 2026-04-20 23:46 | 60.84549 | -146.77548 | 7765 ft | 223 kts | 341° |
| 2026-04-20 23:46 | 60.86021 | -146.78488 | 7770 ft | 220 kts | 341° |
| 2026-04-20 23:47 | 60.87479 | -146.79382 | 7777 ft | 219 kts | 342° |
| 2026-04-20 23:47 | 60.88928 | -146.80215 | 7776 ft | 219 kts | 343° |
| 2026-04-20 23:47 | 60.90404 | -146.81043 | 7774 ft | 221 kts | 343° |
| 2026-04-20 23:47 | 60.91889 | -146.81864 | 7774 ft | 222 kts | 343° |
| 2026-04-20 23:48 | 60.93383 | -146.82686 | 7774 ft | 223 kts | 343° |
| 2026-04-20 23:48 | 60.94886 | -146.83515 | 7777 ft | 225 kts | 343° |
| 2026-04-20 23:48 | 60.96401 | -146.84349 | 7779 ft | 226 kts | 343° |
| 2026-04-20 23:48 | 60.97920 | -146.85187 | 7779 ft | 225 kts | 343° |
| 2026-04-20 23:49 | 60.99424 | -146.86016 | 7783 ft | 223 kts | 343° |
| 2026-04-20 23:49 | 61.00923 | -146.86830 | 7779 ft | 220 kts | 345° |
| 2026-04-20 23:49 | 61.02379 | -146.87525 | 7666 ft | 213 kts | 347° |
| 2026-04-20 23:49 | 61.03857 | -146.87482 | 7478 ft | 214 kts | 11° |
| 2026-04-20 23:50 | 61.05306 | -146.86823 | 7324 ft | 213 kts | 22° |
| 2026-04-20 23:50 | 61.06430 | -146.84971 | 7167 ft | 211 kts | 58° |
| 2026-04-20 23:50 | 61.06953 | -146.82198 | 7012 ft | 207 kts | 78° |
| 2026-04-20 23:50 | 61.07288 | -146.79305 | 6857 ft | 208 kts | 80° |
| 2026-04-20 23:51 | 61.07591 | -146.76394 | 6703 ft | 207 kts | 81° |
| 2026-04-20 23:51 | 61.07883 | -146.73479 | 6550 ft | 207 kts | 81° |
| 2026-04-20 23:51 | 61.08170 | -146.70553 | 6395 ft | 207 kts | 81° |
| 2026-04-20 23:51 | 61.08453 | -146.67640 | 6259 ft | 205 kts | 81° |
| 2026-04-20 23:52 | 61.08732 | -146.64839 | 6145 ft | 192 kts | 81° |
| 2026-04-20 23:52 | 61.08996 | -146.62208 | 6051 ft | 182 kts | 81° |
| 2026-04-20 23:52 | 61.09251 | -146.59703 | 5946 ft | 174 kts | 81° |
| 2026-04-20 23:52 | 61.09496 | -146.57314 | 5835 ft | 166 kts | 81° |
| 2026-04-20 23:53 | 61.09731 | -146.55041 | 5725 ft | 158 kts | 81° |
| 2026-04-20 23:53 | 61.09957 | -146.52864 | 5509 ft | 155 kts | 81° |
| 2026-04-20 23:53 | 61.10183 | -146.50686 | 5242 ft | 153 kts | 81° |
| 2026-04-20 23:53 | 61.10396 | -146.48699 | 4976 ft | 131 kts | 81° |
| 2026-04-20 23:54 | 61.10584 | -146.46949 | 4716 ft | 123 kts | 81° |
| 2026-04-20 23:54 | 61.10768 | -146.45273 | 4539 ft | 121 kts | 80° |
| 2026-04-20 23:54 | 61.10968 | -146.43532 | 4460 ft | 126 kts | 79° |
| 2026-04-20 23:54 | 61.11176 | -146.41763 | 4425 ft | 127 kts | 80° |
| 2026-04-20 23:55 | 61.11393 | -146.39963 | 4357 ft | 134 kts | 78° |
| 2026-04-20 23:55 | 61.11702 | -146.38147 | 3977 ft | 131 kts | 69° |
| 2026-04-20 23:55 | 61.12046 | -146.36403 | 3434 ft | 132 kts | 71° |
| 2026-04-20 23:55 | 61.12425 | -146.34649 | 2648 ft | 136 kts | 50° |
| 2026-04-20 23:56 | 61.13097 | -146.33283 | 2019 ft | 135 kts | 60° |
| 2026-04-20 23:56 | 61.13136 | -146.31432 | 1535 ft | 137 kts | 112° |
| 2026-04-20 23:56 | 61.12732 | -146.29719 | 1131 ft | 125 kts | 116° |
| 2026-04-20 23:56 | 61.12436 | -146.28154 | 1002 ft | 115 kts | 107° |
| 2026-04-20 23:57 | 61.12278 | -146.26555 | 924 ft | 112 kts | 101° |
| 2026-04-20 23:57 | 61.12241 | -146.26142 | 872 ft | 114 kts | 101° |
| 2026-04-20 23:57 | 61.12192 | -146.25595 | 842 ft | 113 kts | 99° |
| 2026-04-20 23:57 | 61.12171 | -146.23922 | 768 ft | 123 kts | 89° |
| 2026-04-20 23:58 | 61.12179 | -146.22092 | 939 ft | 132 kts | 90° |
| 2026-04-20 23:58 | 61.12241 | -146.20265 | 1040 ft | 124 kts | 68° |
| 2026-04-20 23:58 | 61.12927 | -146.19880 | 1125 ft | 122 kts | 322° |
| 2026-04-20 23:58 | 61.13543 | -146.21204 | 657 ft | 126 kts | 294° |
| 2026-04-20 23:59 | 61.13536 | -146.22920 | 179 ft | 119 kts | 261° |
| 2026-04-20 23:59 | 61.13426 | -146.24450 | 95 ft | 92 kts | 260° |
| 2026-04-20 23:59 | 61.13362 | -146.25284 | 245 ft | 41 kts | 262° |
| 2026-04-20 23:59 | 61.13326 | -146.25775 | 240 ft | 29 kts | 261° |
| 2026-04-21 00:00 | 61.13298 | -146.26124 | 240 ft | 23 kts | 259° |
| 2026-04-21 00:00 | 61.13207 | -146.26235 | 234 ft | 15 kts | 172° |
| 2026-04-21 00:00 | 61.13142 | -146.26185 | 232 ft | 9 kts | 126° |
| 2026-04-21 00:00 | 61.13128 | -146.26045 | 235 ft | 11 kts | 94° |
| 2026-04-21 00:01 | 61.13119 | -146.25817 | 235 ft | 15 kts | 95° |
| 2026-04-21 00:01 | 61.13119 | -146.25654 | 244 ft | 8 kts | 80° |
| 2026-04-21 00:01 | 61.13094 | -146.25600 | 241 ft | 7 kts | 179° |
| 2026-04-21 00:01 | 61.13071 | -146.25641 | 241 ft | 0 kts | 274° |